sensor_id;sensor_type;location;lat;lon;timestamp;temperature;humidity
53254;DHT22;39148;53.332;6.922;2023-07-13T00:00:35;22.40;75.10
53254;DHT22;39148;53.332;6.922;2023-07-13T00:03:02;22.30;75.10
53254;DHT22;39148;53.332;6.922;2023-07-13T00:05:28;22.40;75.20
53254;DHT22;39148;53.332;6.922;2023-07-13T00:07:53;22.40;75.10
53254;DHT22;39148;53.332;6.922;2023-07-13T00:10:20;22.30;75.10
53254;DHT22;39148;53.332;6.922;2023-07-13T00:12:47;22.30;75.20
53254;DHT22;39148;53.332;6.922;2023-07-13T00:15:19;22.30;75.30
53254;DHT22;39148;53.332;6.922;2023-07-13T00:17:53;22.30;75.40
53254;DHT22;39148;53.332;6.922;2023-07-13T00:20:21;22.30;75.50
53254;DHT22;39148;53.332;6.922;2023-07-13T00:22:48;22.30;75.40
53254;DHT22;39148;53.332;6.922;2023-07-13T00:25:14;22.20;75.40
53254;DHT22;39148;53.332;6.922;2023-07-13T00:27:42;22.20;75.30
53254;DHT22;39148;53.332;6.922;2023-07-13T00:30:08;22.20;75.40
53254;DHT22;39148;53.332;6.922;2023-07-13T00:32:34;22.20;75.20
53254;DHT22;39148;53.332;6.922;2023-07-13T00:35:01;22.10;75.30
53254;DHT22;39148;53.332;6.922;2023-07-13T00:37:27;22.10;75.30
53254;DHT22;39148;53.332;6.922;2023-07-13T00:39:52;22.20;75.50
53254;DHT22;39148;53.332;6.922;2023-07-13T00:42:18;22.20;75.40
53254;DHT22;39148;53.332;6.922;2023-07-13T00:47:28;22.10;75.80
53254;DHT22;39148;53.332;6.922;2023-07-13T00:49:53;22.10;75.40
53254;DHT22;39148;53.332;6.922;2023-07-13T00:52:19;22.00;75.40
53254;DHT22;39148;53.332;6.922;2023-07-13T00:54:46;22.00;75.40
53254;DHT22;39148;53.332;6.922;2023-07-13T00:57:15;22.00;75.70
53254;DHT22;39148;53.332;6.922;2023-07-13T00:59:45;22.10;75.70
53254;DHT22;39148;53.332;6.922;2023-07-13T01:02:11;22.20;75.80
53254;DHT22;39148;53.332;6.922;2023-07-13T01:04:37;21.90;75.60
53254;DHT22;39148;53.332;6.922;2023-07-13T01:07:04;22.00;75.60
53254;DHT22;39148;53.332;6.922;2023-07-13T01:09:30;22.00;75.60
53254;DHT22;39148;53.332;6.922;2023-07-13T01:11:56;22.00;75.60
53254;DHT22;39148;53.332;6.922;2023-07-13T01:14:21;22.00;75.60
53254;DHT22;39148;53.332;6.922;2023-07-13T01:16:48;21.90;75.60
53254;DHT22;39148;53.332;6.922;2023-07-13T01:22:02;22.00;74.80
53254;DHT22;39148;53.332;6.922;2023-07-13T01:24:28;21.80;75.70
53254;DHT22;39148;53.332;6.922;2023-07-13T01:26:54;21.90;75.70
53254;DHT22;39148;53.332;6.922;2023-07-13T01:29:21;21.80;75.80
53254;DHT22;39148;53.332;6.922;2023-07-13T01:31:47;21.70;75.90
53254;DHT22;39148;53.332;6.922;2023-07-13T01:34:13;21.80;75.90
53254;DHT22;39148;53.332;6.922;2023-07-13T01:36:38;21.80;75.80
53254;DHT22;39148;53.332;6.922;2023-07-13T01:39:04;21.80;75.90
53254;DHT22;39148;53.332;6.922;2023-07-13T01:41:30;21.80;76.00
53254;DHT22;39148;53.332;6.922;2023-07-13T01:43:55;21.70;75.90
53254;DHT22;39148;53.332;6.922;2023-07-13T01:46:21;21.70;75.90
53254;DHT22;39148;53.332;6.922;2023-07-13T01:48:47;21.70;76.40
53254;DHT22;39148;53.332;6.922;2023-07-13T01:51:13;21.70;76.00
53254;DHT22;39148;53.332;6.922;2023-07-13T01:53:39;21.60;76.00
53254;DHT22;39148;53.332;6.922;2023-07-13T01:56:05;21.60;76.00
53254;DHT22;39148;53.332;6.922;2023-07-13T01:58:30;21.70;76.10
53254;DHT22;39148;53.332;6.922;2023-07-13T02:00:56;21.60;76.00
53254;DHT22;39148;53.332;6.922;2023-07-13T02:03:22;21.60;76.10
53254;DHT22;39148;53.332;6.922;2023-07-13T02:05:47;21.50;76.10
53254;DHT22;39148;53.332;6.922;2023-07-13T02:08:13;21.60;76.20
53254;DHT22;39148;53.332;6.922;2023-07-13T02:10:39;21.60;76.20
53254;DHT22;39148;53.332;6.922;2023-07-13T02:13:06;21.70;76.50
53254;DHT22;39148;53.332;6.922;2023-07-13T02:15:32;21.60;76.50
53254;DHT22;39148;53.332;6.922;2023-07-13T02:17:58;21.60;76.30
53254;DHT22;39148;53.332;6.922;2023-07-13T02:20:24;21.60;76.40
53254;DHT22;39148;53.332;6.922;2023-07-13T02:22:50;21.50;76.40
53254;DHT22;39148;53.332;6.922;2023-07-13T02:25:16;21.50;76.40
53254;DHT22;39148;53.332;6.922;2023-07-13T02:27:41;21.40;76.40
53254;DHT22;39148;53.332;6.922;2023-07-13T02:30:07;21.40;76.40
53254;DHT22;39148;53.332;6.922;2023-07-13T02:32:33;21.40;76.20
53254;DHT22;39148;53.332;6.922;2023-07-13T02:34:59;21.50;76.50
53254;DHT22;39148;53.332;6.922;2023-07-13T02:37:25;21.50;76.50
53254;DHT22;39148;53.332;6.922;2023-07-13T02:39:50;21.50;76.70
53254;DHT22;39148;53.332;6.922;2023-07-13T02:42:16;21.40;76.60
53254;DHT22;39148;53.332;6.922;2023-07-13T02:44:42;21.50;76.70
53254;DHT22;39148;53.332;6.922;2023-07-13T02:47:08;21.40;76.60
53254;DHT22;39148;53.332;6.922;2023-07-13T02:49:33;21.40;76.80
53254;DHT22;39148;53.332;6.922;2023-07-13T02:51:59;21.40;76.70
53254;DHT22;39148;53.332;6.922;2023-07-13T02:54:25;21.30;76.70
53254;DHT22;39148;53.332;6.922;2023-07-13T02:56:50;21.40;76.80
53254;DHT22;39148;53.332;6.922;2023-07-13T02:59:16;21.30;76.70
53254;DHT22;39148;53.332;6.922;2023-07-13T03:01:42;21.40;77.00
53254;DHT22;39148;53.332;6.922;2023-07-13T03:04:08;21.30;76.80
53254;DHT22;39148;53.332;6.922;2023-07-13T03:06:34;21.40;76.90
53254;DHT22;39148;53.332;6.922;2023-07-13T03:09:00;21.40;77.00
53254;DHT22;39148;53.332;6.922;2023-07-13T03:11:25;21.20;76.80
53254;DHT22;39148;53.332;6.922;2023-07-13T03:13:52;21.30;76.90
53254;DHT22;39148;53.332;6.922;2023-07-13T03:16:17;21.30;76.90
53254;DHT22;39148;53.332;6.922;2023-07-13T03:18:43;21.30;76.90
53254;DHT22;39148;53.332;6.922;2023-07-13T03:21:10;21.30;77.10
53254;DHT22;39148;53.332;6.922;2023-07-13T03:23:36;21.20;77.60
53254;DHT22;39148;53.332;6.922;2023-07-13T03:26:13;21.30;77.00
53254;DHT22;39148;53.332;6.922;2023-07-13T03:28:39;21.20;75.90
53254;DHT22;39148;53.332;6.922;2023-07-13T03:31:08;21.20;77.10
53254;DHT22;39148;53.332;6.922;2023-07-13T03:33:35;21.30;77.30
53254;DHT22;39148;53.332;6.922;2023-07-13T03:36:01;21.30;77.20
53254;DHT22;39148;53.332;6.922;2023-07-13T03:38:27;21.10;77.10
53254;DHT22;39148;53.332;6.922;2023-07-13T03:40:53;21.20;77.20
53254;DHT22;39148;53.332;6.922;2023-07-13T03:43:19;21.20;77.20
53254;DHT22;39148;53.332;6.922;2023-07-13T03:45:46;21.20;77.70
53254;DHT22;39148;53.332;6.922;2023-07-13T03:48:13;21.10;77.30
53254;DHT22;39148;53.332;6.922;2023-07-13T03:50:38;21.10;77.70
53254;DHT22;39148;53.332;6.922;2023-07-13T03:53:04;21.10;77.20
53254;DHT22;39148;53.332;6.922;2023-07-13T03:55:30;21.10;77.20
53254;DHT22;39148;53.332;6.922;2023-07-13T04:00:45;21.10;76.20
53254;DHT22;39148;53.332;6.922;2023-07-13T04:03:10;21.00;77.20
53254;DHT22;39148;53.332;6.922;2023-07-13T04:05:36;21.10;77.30
53254;DHT22;39148;53.332;6.922;2023-07-13T04:08:02;21.00;77.30
53254;DHT22;39148;53.332;6.922;2023-07-13T04:10:27;21.00;77.20
53254;DHT22;39148;53.332;6.922;2023-07-13T04:12:53;21.00;77.40
53254;DHT22;39148;53.332;6.922;2023-07-13T04:15:19;21.10;77.50
53254;DHT22;39148;53.332;6.922;2023-07-13T04:17:45;21.10;77.40
53254;DHT22;39148;53.332;6.922;2023-07-13T04:20:10;21.00;77.40
53254;DHT22;39148;53.332;6.922;2023-07-13T04:22:36;21.00;77.50
53254;DHT22;39148;53.332;6.922;2023-07-13T04:25:01;21.00;77.40
53254;DHT22;39148;53.332;6.922;2023-07-13T04:27:27;20.90;77.30
53254;DHT22;39148;53.332;6.922;2023-07-13T04:29:54;20.90;77.50
53254;DHT22;39148;53.332;6.922;2023-07-13T04:32:19;21.00;77.50
53254;DHT22;39148;53.332;6.922;2023-07-13T04:34:45;21.00;77.60
53254;DHT22;39148;53.332;6.922;2023-07-13T04:37:11;20.90;77.60
53254;DHT22;39148;53.332;6.922;2023-07-13T04:39:37;21.00;77.60
53254;DHT22;39148;53.332;6.922;2023-07-13T04:42:04;20.90;77.60
53254;DHT22;39148;53.332;6.922;2023-07-13T04:44:29;20.90;77.60
53254;DHT22;39148;53.332;6.922;2023-07-13T04:46:55;20.90;77.70
53254;DHT22;39148;53.332;6.922;2023-07-13T04:49:21;20.90;77.80
53254;DHT22;39148;53.332;6.922;2023-07-13T04:51:47;20.90;77.80
53254;DHT22;39148;53.332;6.922;2023-07-13T04:54:12;21.00;77.90
53254;DHT22;39148;53.332;6.922;2023-07-13T04:56:38;20.80;77.70
53254;DHT22;39148;53.332;6.922;2023-07-13T04:59:04;20.90;77.80
53254;DHT22;39148;53.332;6.922;2023-07-13T05:01:29;20.90;77.80
53254;DHT22;39148;53.332;6.922;2023-07-13T05:03:56;20.90;77.90
53254;DHT22;39148;53.332;6.922;2023-07-13T05:06:24;20.90;77.90
53254;DHT22;39148;53.332;6.922;2023-07-13T05:08:49;20.90;77.90
53254;DHT22;39148;53.332;6.922;2023-07-13T05:11:15;20.80;77.80
53254;DHT22;39148;53.332;6.922;2023-07-13T05:13:41;20.90;77.90
53254;DHT22;39148;53.332;6.922;2023-07-13T05:16:06;20.80;78.00
53254;DHT22;39148;53.332;6.922;2023-07-13T05:18:33;20.80;78.00
53254;DHT22;39148;53.332;6.922;2023-07-13T05:21:01;20.80;78.10
53254;DHT22;39148;53.332;6.922;2023-07-13T05:23:27;20.80;78.10
53254;DHT22;39148;53.332;6.922;2023-07-13T05:25:52;20.70;78.00
53254;DHT22;39148;53.332;6.922;2023-07-13T05:28:18;20.80;78.10
53254;DHT22;39148;53.332;6.922;2023-07-13T05:30:48;20.70;78.50
53254;DHT22;39148;53.332;6.922;2023-07-13T05:33:14;20.80;78.40
53254;DHT22;39148;53.332;6.922;2023-07-13T05:35:40;20.80;78.10
53254;DHT22;39148;53.332;6.922;2023-07-13T05:38:06;20.70;78.10
53254;DHT22;39148;53.332;6.922;2023-07-13T05:40:32;20.80;78.20
53254;DHT22;39148;53.332;6.922;2023-07-13T05:42:57;20.80;78.10
53254;DHT22;39148;53.332;6.922;2023-07-13T05:45:23;20.80;78.20
53254;DHT22;39148;53.332;6.922;2023-07-13T05:47:49;20.80;78.20
53254;DHT22;39148;53.332;6.922;2023-07-13T05:50:14;20.80;78.30
53254;DHT22;39148;53.332;6.922;2023-07-13T05:52:40;20.90;78.20
53254;DHT22;39148;53.332;6.922;2023-07-13T05:55:06;20.80;78.30
53254;DHT22;39148;53.332;6.922;2023-07-13T05:57:32;20.80;78.10
53254;DHT22;39148;53.332;6.922;2023-07-13T05:59:58;20.80;78.30
53254;DHT22;39148;53.332;6.922;2023-07-13T06:02:23;20.90;78.40
53254;DHT22;39148;53.332;6.922;2023-07-13T06:04:49;20.90;78.40
53254;DHT22;39148;53.332;6.922;2023-07-13T06:07:15;20.90;78.40
53254;DHT22;39148;53.332;6.922;2023-07-13T06:09:40;20.70;78.40
53254;DHT22;39148;53.332;6.922;2023-07-13T06:12:06;20.80;78.40
53254;DHT22;39148;53.332;6.922;2023-07-13T06:14:32;20.90;78.10
53254;DHT22;39148;53.332;6.922;2023-07-13T06:16:58;20.90;78.50
53254;DHT22;39148;53.332;6.922;2023-07-13T06:19:23;20.90;78.50
53254;DHT22;39148;53.332;6.922;2023-07-13T06:21:49;20.80;78.50
53254;DHT22;39148;53.332;6.922;2023-07-13T06:24:15;20.80;78.50
53254;DHT22;39148;53.332;6.922;2023-07-13T06:26:41;20.80;78.50
53254;DHT22;39148;53.332;6.922;2023-07-13T06:29:06;20.90;78.40
53254;DHT22;39148;53.332;6.922;2023-07-13T06:31:32;21.00;78.60
53254;DHT22;39148;53.332;6.922;2023-07-13T06:33:58;20.90;78.60
53254;DHT22;39148;53.332;6.922;2023-07-13T06:36:23;20.90;78.70
53254;DHT22;39148;53.332;6.922;2023-07-13T06:38:49;21.00;78.60
53254;DHT22;39148;53.332;6.922;2023-07-13T06:41:15;21.00;78.60
53254;DHT22;39148;53.332;6.922;2023-07-13T06:43:40;21.00;78.80
53254;DHT22;39148;53.332;6.922;2023-07-13T06:46:06;20.90;78.70
53254;DHT22;39148;53.332;6.922;2023-07-13T06:48:32;21.10;78.80
53254;DHT22;39148;53.332;6.922;2023-07-13T06:50:58;21.10;78.70
53254;DHT22;39148;53.332;6.922;2023-07-13T06:53:23;21.00;78.60
53254;DHT22;39148;53.332;6.922;2023-07-13T06:55:50;21.00;78.60
53254;DHT22;39148;53.332;6.922;2023-07-13T06:58:17;21.10;78.70
53254;DHT22;39148;53.332;6.922;2023-07-13T07:00:44;22.00;79.10
53254;DHT22;39148;53.332;6.922;2023-07-13T07:03:09;21.10;78.60
53254;DHT22;39148;53.332;6.922;2023-07-13T07:05:35;21.10;78.40
53254;DHT22;39148;53.332;6.922;2023-07-13T07:08:01;21.20;78.50
53254;DHT22;39148;53.332;6.922;2023-07-13T07:10:28;21.10;78.40
53254;DHT22;39148;53.332;6.922;2023-07-13T07:12:54;21.10;78.50
53254;DHT22;39148;53.332;6.922;2023-07-13T07:15:20;21.20;78.50
53254;DHT22;39148;53.332;6.922;2023-07-13T07:17:46;21.10;78.30
53254;DHT22;39148;53.332;6.922;2023-07-13T07:20:12;21.20;78.40
53254;DHT22;39148;53.332;6.922;2023-07-13T07:22:38;21.20;78.60
53254;DHT22;39148;53.332;6.922;2023-07-13T07:25:04;21.20;78.30
53254;DHT22;39148;53.332;6.922;2023-07-13T07:27:30;21.30;78.40
53254;DHT22;39148;53.332;6.922;2023-07-13T07:29:55;21.20;78.40
53254;DHT22;39148;53.332;6.922;2023-07-13T07:32:23;21.30;78.60
53254;DHT22;39148;53.332;6.922;2023-07-13T07:34:49;21.40;78.70
53254;DHT22;39148;53.332;6.922;2023-07-13T07:37:15;21.40;78.50
53254;DHT22;39148;53.332;6.922;2023-07-13T07:39:40;21.30;78.30
53254;DHT22;39148;53.332;6.922;2023-07-13T07:42:06;21.40;78.60
53254;DHT22;39148;53.332;6.922;2023-07-13T07:44:33;21.40;78.50
53254;DHT22;39148;53.332;6.922;2023-07-13T07:46:59;21.40;78.40
53254;DHT22;39148;53.332;6.922;2023-07-13T07:49:25;21.40;78.20
53254;DHT22;39148;53.332;6.922;2023-07-13T07:51:51;21.50;78.20
53254;DHT22;39148;53.332;6.922;2023-07-13T07:54:17;21.50;78.40
53254;DHT22;39148;53.332;6.922;2023-07-13T07:56:43;21.50;78.20
53254;DHT22;39148;53.332;6.922;2023-07-13T07:59:09;21.50;78.20
53254;DHT22;39148;53.332;6.922;2023-07-13T08:01:35;21.60;78.40
53254;DHT22;39148;53.332;6.922;2023-07-13T08:04:01;21.60;78.50
53254;DHT22;39148;53.332;6.922;2023-07-13T08:06:27;21.60;78.30
53254;DHT22;39148;53.332;6.922;2023-07-13T08:08:52;21.50;78.20
53254;DHT22;39148;53.332;6.922;2023-07-13T08:11:20;21.70;78.30
53254;DHT22;39148;53.332;6.922;2023-07-13T08:13:46;21.60;78.20
53254;DHT22;39148;53.332;6.922;2023-07-13T08:16:14;21.70;78.20
53254;DHT22;39148;53.332;6.922;2023-07-13T08:18:40;21.70;78.30
53254;DHT22;39148;53.332;6.922;2023-07-13T08:21:07;21.80;78.20
53254;DHT22;39148;53.332;6.922;2023-07-13T08:23:34;21.70;78.20
53254;DHT22;39148;53.332;6.922;2023-07-13T08:26:00;21.90;78.20
53254;DHT22;39148;53.332;6.922;2023-07-13T08:28:30;21.90;78.20
53254;DHT22;39148;53.332;6.922;2023-07-13T08:31:04;21.80;78.00
53254;DHT22;39148;53.332;6.922;2023-07-13T08:33:30;21.90;78.20
53254;DHT22;39148;53.332;6.922;2023-07-13T08:35:56;21.80;78.00
53254;DHT22;39148;53.332;6.922;2023-07-13T08:38:22;22.00;77.80
53254;DHT22;39148;53.332;6.922;2023-07-13T08:40:53;21.90;77.70
53254;DHT22;39148;53.332;6.922;2023-07-13T08:43:27;22.10;78.10
53254;DHT22;39148;53.332;6.922;2023-07-13T08:46:02;22.00;77.90
53254;DHT22;39148;53.332;6.922;2023-07-13T08:48:33;22.00;76.60
53254;DHT22;39148;53.332;6.922;2023-07-13T08:53:46;22.10;76.60
53254;DHT22;39148;53.332;6.922;2023-07-13T08:56:29;22.10;77.90
53254;DHT22;39148;53.332;6.922;2023-07-13T08:59:11;22.20;78.00
53254;DHT22;39148;53.332;6.922;2023-07-13T09:07:15;22.20;76.30
53254;DHT22;39148;53.332;6.922;2023-07-13T09:10:03;22.20;77.50
53254;DHT22;39148;53.332;6.922;2023-07-13T09:12:40;22.30;76.50
53254;DHT22;39148;53.332;6.922;2023-07-13T09:17:59;22.30;77.70
53254;DHT22;39148;53.332;6.922;2023-07-13T09:20:50;22.30;77.40
53254;DHT22;39148;53.332;6.922;2023-07-13T09:23:22;22.40;77.60
53254;DHT22;39148;53.332;6.922;2023-07-13T09:25:52;22.30;77.30
53254;DHT22;39148;53.332;6.922;2023-07-13T09:28:28;22.30;77.30
53254;DHT22;39148;53.332;6.922;2023-07-13T09:31:37;22.40;77.40
53254;DHT22;39148;53.332;6.922;2023-07-13T09:34:09;22.50;76.00
53254;DHT22;39148;53.332;6.922;2023-07-13T09:36:35;22.40;77.20
53254;DHT22;39148;53.332;6.922;2023-07-13T09:42:14;22.40;77.20
53254;DHT22;39148;53.332;6.922;2023-07-13T09:47:25;22.60;77.20
53254;DHT22;39148;53.332;6.922;2023-07-13T09:50:03;22.60;75.90
53254;DHT22;39148;53.332;6.922;2023-07-13T09:52:47;22.60;76.90
53254;DHT22;39148;53.332;6.922;2023-07-13T09:57:52;22.60;75.80
53254;DHT22;39148;53.332;6.922;2023-07-13T10:00:29;22.60;76.70
53254;DHT22;39148;53.332;6.922;2023-07-13T10:03:22;22.60;76.90
53254;DHT22;39148;53.332;6.922;2023-07-13T10:05:47;22.70;76.80
53254;DHT22;39148;53.332;6.922;2023-07-13T10:08:28;22.60;76.70
53254;DHT22;39148;53.332;6.922;2023-07-13T10:11:01;22.70;75.70
53254;DHT22;39148;53.332;6.922;2023-07-13T10:13:32;22.60;76.70
53254;DHT22;39148;53.332;6.922;2023-07-13T10:16:00;22.60;76.60
53254;DHT22;39148;53.332;6.922;2023-07-13T10:18:28;22.70;77.00
53254;DHT22;39148;53.332;6.922;2023-07-13T10:21:14;22.80;76.70
53254;DHT22;39148;53.332;6.922;2023-07-13T10:23:41;22.80;75.50
53254;DHT22;39148;53.332;6.922;2023-07-13T10:26:16;22.70;76.60
53254;DHT22;39148;53.332;6.922;2023-07-13T10:28:47;22.70;76.80
53254;DHT22;39148;53.332;6.922;2023-07-13T10:31:17;22.80;76.70
53254;DHT22;39148;53.332;6.922;2023-07-13T10:33:43;22.80;76.70
53254;DHT22;39148;53.332;6.922;2023-07-13T10:38:38;22.90;75.30
53254;DHT22;39148;53.332;6.922;2023-07-13T10:41:14;22.90;76.60
53254;DHT22;39148;53.332;6.922;2023-07-13T10:43:46;22.80;76.70
53254;DHT22;39148;53.332;6.922;2023-07-13T10:46:15;22.80;76.60
53254;DHT22;39148;53.332;6.922;2023-07-13T10:48:42;23.10;76.70
53254;DHT22;39148;53.332;6.922;2023-07-13T10:51:10;22.90;76.50
53254;DHT22;39148;53.332;6.922;2023-07-13T10:53:38;22.90;76.50
53254;DHT22;39148;53.332;6.922;2023-07-13T10:56:29;22.90;76.50
53254;DHT22;39148;53.332;6.922;2023-07-13T11:01:55;22.90;75.40
53254;DHT22;39148;53.332;6.922;2023-07-13T11:04:22;22.90;75.40
53254;DHT22;39148;53.332;6.922;2023-07-13T11:06:52;22.90;76.50
53254;DHT22;39148;53.332;6.922;2023-07-13T11:09:40;22.90;76.50
53254;DHT22;39148;53.332;6.922;2023-07-13T11:12:09;21.00;75.80
53254;DHT22;39148;53.332;6.922;2023-07-13T11:17:34;22.90;75.30
53254;DHT22;39148;53.332;6.922;2023-07-13T11:25:39;22.90;75.40
53254;DHT22;39148;53.332;6.922;2023-07-13T11:33:29;22.90;76.40
53254;DHT22;39148;53.332;6.922;2023-07-13T11:36:23;22.80;75.50
53254;DHT22;39148;53.332;6.922;2023-07-13T11:39:01;22.80;75.40
53254;DHT22;39148;53.332;6.922;2023-07-13T11:41:51;22.80;75.30
53254;DHT22;39148;53.332;6.922;2023-07-13T11:44:20;22.80;75.40
53254;DHT22;39148;53.332;6.922;2023-07-13T11:46:52;22.90;76.60
53254;DHT22;39148;53.332;6.922;2023-07-13T11:49:20;22.90;76.50
53254;DHT22;39148;53.332;6.922;2023-07-13T11:51:46;22.80;76.30
53254;DHT22;39148;53.332;6.922;2023-07-13T11:54:48;22.70;76.00
53254;DHT22;39148;53.332;6.922;2023-07-13T11:57:30;22.80;75.10
53254;DHT22;39148;53.332;6.922;2023-07-13T11:59:58;22.80;75.10
53254;DHT22;39148;53.332;6.922;2023-07-13T12:02:34;22.90;76.40
53254;DHT22;39148;53.332;6.922;2023-07-13T12:05:04;22.70;75.10
53254;DHT22;39148;53.332;6.922;2023-07-13T12:07:32;22.90;76.20
53254;DHT22;39148;53.332;6.922;2023-07-13T12:10:20;22.80;76.30
53254;DHT22;39148;53.332;6.922;2023-07-13T12:12:53;22.80;76.50
53254;DHT22;39148;53.332;6.922;2023-07-13T12:15:20;22.90;76.50
53254;DHT22;39148;53.332;6.922;2023-07-13T12:17:48;22.80;76.20
53254;DHT22;39148;53.332;6.922;2023-07-13T12:20:29;22.70;76.00
53254;DHT22;39148;53.332;6.922;2023-07-13T12:22:59;22.90;75.10
53254;DHT22;39148;53.332;6.922;2023-07-13T12:25:24;22.70;76.10
53254;DHT22;39148;53.332;6.922;2023-07-13T12:27:51;22.90;76.30
53254;DHT22;39148;53.332;6.922;2023-07-13T12:30:27;22.90;76.30
53254;DHT22;39148;53.332;6.922;2023-07-13T12:35:30;22.90;75.10
53254;DHT22;39148;53.332;6.922;2023-07-13T12:38:01;22.80;76.10
53254;DHT22;39148;53.332;6.922;2023-07-13T12:40:32;22.80;76.00
53254;DHT22;39148;53.332;6.922;2023-07-13T12:42:59;22.90;76.20
53254;DHT22;39148;53.332;6.922;2023-07-13T12:45:26;22.90;76.00
53254;DHT22;39148;53.332;6.922;2023-07-13T12:48:14;22.80;76.00
53254;DHT22;39148;53.332;6.922;2023-07-13T12:50:45;23.00;76.10
53254;DHT22;39148;53.332;6.922;2023-07-13T12:53:17;22.90;75.80
53254;DHT22;39148;53.332;6.922;2023-07-13T12:55:46;22.90;76.10
53254;DHT22;39148;53.332;6.922;2023-07-13T12:58:36;22.90;75.90
53254;DHT22;39148;53.332;6.922;2023-07-13T13:01:03;22.90;76.00
53254;DHT22;39148;53.332;6.922;2023-07-13T13:03:39;23.00;75.90
53254;DHT22;39148;53.332;6.922;2023-07-13T13:08:49;23.10;74.80
53254;DHT22;39148;53.332;6.922;2023-07-13T13:11:16;23.00;75.90
53254;DHT22;39148;53.332;6.922;2023-07-13T13:13:43;23.00;75.80
53254;DHT22;39148;53.332;6.922;2023-07-13T13:16:29;23.00;75.70
53254;DHT22;39148;53.332;6.922;2023-07-13T13:21:43;24.80;75.20
53254;DHT22;39148;53.332;6.922;2023-07-13T13:24:14;23.10;75.50
53254;DHT22;39148;53.332;6.922;2023-07-13T13:26:41;23.30;75.70
53254;DHT22;39148;53.332;6.922;2023-07-13T13:29:18;23.10;75.60
53254;DHT22;39148;53.332;6.922;2023-07-13T13:31:45;23.10;75.70
53254;DHT22;39148;53.332;6.922;2023-07-13T13:34:13;23.20;75.40
53254;DHT22;39148;53.332;6.922;2023-07-13T13:36:39;23.10;75.40
53254;DHT22;39148;53.332;6.922;2023-07-13T13:39:34;23.10;75.90
53254;DHT22;39148;53.332;6.922;2023-07-13T13:42:01;23.20;74.30
53254;DHT22;39148;53.332;6.922;2023-07-13T13:44:26;23.10;75.30
53254;DHT22;39148;53.332;6.922;2023-07-13T13:46:53;23.20;75.20
53254;DHT22;39148;53.332;6.922;2023-07-13T13:49:25;23.20;75.40
53254;DHT22;39148;53.332;6.922;2023-07-13T13:51:51;23.30;75.50
53254;DHT22;39148;53.332;6.922;2023-07-13T13:54:18;23.20;75.60
53254;DHT22;39148;53.332;6.922;2023-07-13T13:56:46;23.40;75.30
53254;DHT22;39148;53.332;6.922;2023-07-13T13:59:13;23.40;75.40
53254;DHT22;39148;53.332;6.922;2023-07-13T14:01:40;23.40;75.20
53254;DHT22;39148;53.332;6.922;2023-07-13T14:04:08;23.30;75.20
53254;DHT22;39148;53.332;6.922;2023-07-13T14:06:36;23.40;75.20
53254;DHT22;39148;53.332;6.922;2023-07-13T14:09:02;23.40;75.20
53254;DHT22;39148;53.332;6.922;2023-07-13T14:11:29;23.50;75.20
53254;DHT22;39148;53.332;6.922;2023-07-13T14:13:58;23.40;75.20
53254;DHT22;39148;53.332;6.922;2023-07-13T14:16:28;23.40;75.10
53254;DHT22;39148;53.332;6.922;2023-07-13T14:18:54;23.50;75.10
53254;DHT22;39148;53.332;6.922;2023-07-13T14:21:23;23.50;75.40
53254;DHT22;39148;53.332;6.922;2023-07-13T14:23:49;23.60;75.00
53254;DHT22;39148;53.332;6.922;2023-07-13T14:26:26;23.60;75.70
53254;DHT22;39148;53.332;6.922;2023-07-13T14:28:56;23.60;75.40
53254;DHT22;39148;53.332;6.922;2023-07-13T14:31:24;23.60;75.20
53254;DHT22;39148;53.332;6.922;2023-07-13T14:33:50;23.50;75.10
53254;DHT22;39148;53.332;6.922;2023-07-13T14:36:29;23.60;75.00
53254;DHT22;39148;53.332;6.922;2023-07-13T14:38:57;23.60;73.90
53254;DHT22;39148;53.332;6.922;2023-07-13T14:41:23;23.70;75.30
53254;DHT22;39148;53.332;6.922;2023-07-13T14:43:49;23.70;75.20
53254;DHT22;39148;53.332;6.922;2023-07-13T14:46:26;23.60;75.00
53254;DHT22;39148;53.332;6.922;2023-07-13T14:49:10;23.70;75.40
53254;DHT22;39148;53.332;6.922;2023-07-13T14:51:38;23.70;74.10
53254;DHT22;39148;53.332;6.922;2023-07-13T14:54:05;23.60;75.00
53254;DHT22;39148;53.332;6.922;2023-07-13T14:56:31;23.60;75.10
53254;DHT22;39148;53.332;6.922;2023-07-13T14:58:57;23.60;75.00
53254;DHT22;39148;53.332;6.922;2023-07-13T15:01:23;23.70;75.00
53254;DHT22;39148;53.332;6.922;2023-07-13T15:03:51;23.70;75.20
53254;DHT22;39148;53.332;6.922;2023-07-13T15:06:18;23.70;75.40
53254;DHT22;39148;53.332;6.922;2023-07-13T15:08:45;23.70;75.10
53254;DHT22;39148;53.332;6.922;2023-07-13T15:11:11;23.60;75.10
53254;DHT22;39148;53.332;6.922;2023-07-13T15:13:38;23.80;75.20
53254;DHT22;39148;53.332;6.922;2023-07-13T15:16:10;23.70;75.20
53254;DHT22;39148;53.332;6.922;2023-07-13T15:18:39;23.70;75.30
53254;DHT22;39148;53.332;6.922;2023-07-13T15:21:09;23.70;75.20
53254;DHT22;39148;53.332;6.922;2023-07-13T15:23:39;23.70;75.30
53254;DHT22;39148;53.332;6.922;2023-07-13T15:26:05;23.60;75.10
53254;DHT22;39148;53.332;6.922;2023-07-13T15:28:32;23.80;75.20
53254;DHT22;39148;53.332;6.922;2023-07-13T15:30:57;23.70;75.00
53254;DHT22;39148;53.332;6.922;2023-07-13T15:33:28;23.70;75.10
53254;DHT22;39148;53.332;6.922;2023-07-13T15:35:54;23.70;75.40
53254;DHT22;39148;53.332;6.922;2023-07-13T15:38:27;23.60;75.60
53254;DHT22;39148;53.332;6.922;2023-07-13T15:40:54;23.60;75.40
53254;DHT22;39148;53.332;6.922;2023-07-13T15:43:20;23.60;75.40
53254;DHT22;39148;53.332;6.922;2023-07-13T15:45:47;23.60;75.40
53254;DHT22;39148;53.332;6.922;2023-07-13T15:48:19;23.70;75.40
53254;DHT22;39148;53.332;6.922;2023-07-13T15:50:51;23.70;74.10
53254;DHT22;39148;53.332;6.922;2023-07-13T15:53:31;23.70;75.50
53254;DHT22;39148;53.332;6.922;2023-07-13T15:55:58;23.70;75.60
53254;DHT22;39148;53.332;6.922;2023-07-13T15:58:24;23.70;75.30
53254;DHT22;39148;53.332;6.922;2023-07-13T16:00:51;23.70;75.30
53254;DHT22;39148;53.332;6.922;2023-07-13T16:03:17;23.70;75.20
53254;DHT22;39148;53.332;6.922;2023-07-13T16:05:44;23.60;75.30
53254;DHT22;39148;53.332;6.922;2023-07-13T16:08:36;23.60;75.20
53254;DHT22;39148;53.332;6.922;2023-07-13T16:11:12;23.70;75.60
53254;DHT22;39148;53.332;6.922;2023-07-13T16:13:38;23.70;75.40
53254;DHT22;39148;53.332;6.922;2023-07-13T16:16:09;23.70;75.20
53254;DHT22;39148;53.332;6.922;2023-07-13T16:18:35;23.80;75.40
53254;DHT22;39148;53.332;6.922;2023-07-13T16:21:01;23.80;75.40
53254;DHT22;39148;53.332;6.922;2023-07-13T16:23:36;23.70;75.00
53254;DHT22;39148;53.332;6.922;2023-07-13T16:26:03;23.70;75.10
53254;DHT22;39148;53.332;6.922;2023-07-13T16:28:30;23.60;74.90
53254;DHT22;39148;53.332;6.922;2023-07-13T16:30:56;23.60;74.80
53254;DHT22;39148;53.332;6.922;2023-07-13T16:33:22;23.50;74.70